createdAt,value
2023-03-05T00:01:39.941Z,28.55
2023-03-05T00:04:11.647Z,27.67
2023-03-05T00:06:39.609Z,28.45
2023-03-05T00:09:07.582Z,28.42
2023-03-05T00:11:35.520Z,28.30
2023-03-05T00:14:04.704Z,28.23
2023-03-05T00:16:33.148Z,29.95
2023-03-05T00:19:01.760Z,29.40
2023-03-05T00:21:30.892Z,28.90
2023-03-05T00:24:03.943Z,29.63
2023-03-05T00:26:34.947Z,28.53
2023-03-05T00:29:03.819Z,27.73
2023-03-05T00:31:34.298Z,28.63
2023-03-05T00:34:05.447Z,27.17
2023-03-05T00:36:33.583Z,28.80
2023-03-05T00:39:01.707Z,28.08
2023-03-05T00:41:29.717Z,29.33
2023-03-05T00:43:57.841Z,27.23
2023-03-05T00:46:27.664Z,27.88
2023-03-05T00:48:57.267Z,29.88
2023-03-05T00:51:25.161Z,28.83
2023-03-05T00:53:53.092Z,28.58
2023-03-05T00:56:21.324Z,29.42
2023-03-05T00:58:49.367Z,28.50
2023-03-05T01:01:17.535Z,28.08
2023-03-05T01:03:45.655Z,28.40
2023-03-05T01:06:16.575Z,28.65
2023-03-05T01:08:45.401Z,27.65
2023-03-05T01:11:13.366Z,27.38
2023-03-05T01:13:41.471Z,27.90
2023-03-05T01:16:09.704Z,26.02
2023-03-05T01:18:38.547Z,26.60
2023-03-05T01:21:07.339Z,26.65
2023-03-05T01:23:37.589Z,27.83
2023-03-05T01:26:06.737Z,25.63
2023-03-05T01:28:34.869Z,26.30
2023-03-05T01:31:02.801Z,24.98
2023-03-05T01:33:30.718Z,25.90
2023-03-05T01:35:58.680Z,25.92
2023-03-05T01:38:26.556Z,25.90
2023-03-05T01:40:54.472Z,28.27
2023-03-05T01:43:26.712Z,25.02
2023-03-05T01:46:13.642Z,24.95
2023-03-05T01:48:47.704Z,24.52
2023-03-05T01:53:44.211Z,27.70
2023-03-05T01:56:12.472Z,26.23
2023-03-05T01:58:40.698Z,27.17
2023-03-05T02:01:08.880Z,25.95
2023-03-05T02:03:37.689Z,24.48
2023-03-05T02:06:05.876Z,25.48
2023-03-05T02:08:33.880Z,26.42
2023-03-05T02:11:02.291Z,25.88
2023-03-05T02:13:35.800Z,25.10
2023-03-05T02:16:04.196Z,24.27
2023-03-05T02:18:32.148Z,25.75
2023-03-05T02:21:04.689Z,23.58
2023-03-05T02:23:36.638Z,25.08
2023-03-05T02:26:06.834Z,25.50
2023-03-05T02:28:44.732Z,25.02
2023-03-05T02:31:19.133Z,26.67
2023-03-05T02:33:48.002Z,25.80
2023-03-05T02:36:17.720Z,24.83
2023-03-05T02:38:47.711Z,26.90
2023-03-05T02:41:16.390Z,25.98
2023-03-05T02:43:44.763Z,26.27
2023-03-05T02:46:13.137Z,26.15
2023-03-05T02:48:41.142Z,25.70
2023-03-05T02:51:11.866Z,24.95
2023-03-05T02:53:39.743Z,25.55
2023-03-05T02:56:07.729Z,25.05
2023-03-05T02:58:36.791Z,25.55
2023-03-05T03:01:04.952Z,24.88
2023-03-05T03:03:33.204Z,25.20
2023-03-05T03:06:01.320Z,26.08
2023-03-05T03:08:29.242Z,24.63
2023-03-05T03:10:57.047Z,25.60
2023-03-05T03:13:25.563Z,24.23
2023-03-05T03:16:03.112Z,25.88
2023-03-05T03:18:31.042Z,23.90
2023-03-05T03:20:59.368Z,24.65
2023-03-05T03:23:27.955Z,24.60
2023-03-05T03:25:55.862Z,24.23
2023-03-05T03:28:24.228Z,26.08
2023-03-05T03:30:52.093Z,25.70
2023-03-05T03:33:20.184Z,25.70
2023-03-05T03:35:48.139Z,24.77
2023-03-05T03:38:16.033Z,23.40
2023-03-05T03:40:43.931Z,25.85
2023-03-05T03:43:11.930Z,26.30
2023-03-05T03:45:43.961Z,25.63
2023-03-05T03:48:12.000Z,25.85
2023-03-05T03:50:44.213Z,26.75
2023-03-05T03:53:15.239Z,26.27
2023-03-05T03:55:43.513Z,24.13
2023-03-05T03:58:11.494Z,26.88
2023-03-05T04:00:40.791Z,25.02
2023-03-05T04:03:09.165Z,25.52
2023-03-05T04:05:37.161Z,25.10
2023-03-05T04:08:05.957Z,24.63
2023-03-05T04:10:33.840Z,25.40
2023-03-05T04:13:01.663Z,25.40
2023-03-05T04:15:31.071Z,26.45
2023-03-05T04:17:59.193Z,26.48
2023-03-05T04:20:27.327Z,24.85
2023-03-05T04:22:55.161Z,24.88
2023-03-05T04:25:23.215Z,23.65
2023-03-05T04:27:52.224Z,24.70
2023-03-05T04:30:20.168Z,24.50
2023-03-05T04:32:48.036Z,24.38
2023-03-05T04:35:15.956Z,24.80
2023-03-05T04:37:43.867Z,25.63
2023-03-05T04:40:12.281Z,26.33
2023-03-05T04:42:40.157Z,26.92
2023-03-05T04:45:08.881Z,25.55
2023-03-05T04:47:36.883Z,25.85
2023-03-05T04:50:06.372Z,27.02
2023-03-05T04:52:34.462Z,27.25
2023-03-05T04:55:02.450Z,28.00
2023-03-05T04:57:30.424Z,25.42
2023-03-05T04:59:58.617Z,26.98
2023-03-05T05:02:26.634Z,26.48
2023-03-05T05:04:54.613Z,25.23
2023-03-05T05:07:22.518Z,27.23
2023-03-05T05:09:50.360Z,26.42
2023-03-05T05:12:18.354Z,26.50
2023-03-05T05:14:46.311Z,25.70
2023-03-05T05:17:14.294Z,26.88
2023-03-05T05:19:42.248Z,25.80
2023-03-05T05:22:10.160Z,25.90
2023-03-05T05:24:37.980Z,25.88
2023-03-05T05:27:05.981Z,27.15
2023-03-05T05:29:33.901Z,25.17
2023-03-05T05:32:01.856Z,27.17
2023-03-05T05:34:29.839Z,27.23
2023-03-05T05:36:57.800Z,26.38
2023-03-05T05:39:25.635Z,26.90
2023-03-05T05:41:54.008Z,27.23
2023-03-05T05:44:21.850Z,27.15
2023-03-05T05:46:49.892Z,26.23
2023-03-05T05:49:17.927Z,27.27
2023-03-05T05:51:46.132Z,26.73
2023-03-05T05:54:15.259Z,26.02
2023-03-05T05:56:43.251Z,25.48
2023-03-05T05:59:11.291Z,26.85
2023-03-05T06:01:39.529Z,25.50
2023-03-05T06:04:07.491Z,27.75
2023-03-05T06:06:35.536Z,27.75
2023-03-05T06:09:04.360Z,26.98
2023-03-05T06:11:32.450Z,28.45
2023-03-05T06:14:02.739Z,26.38
2023-03-05T06:16:31.318Z,24.98
2023-03-05T06:19:00.371Z,26.85
2023-03-05T06:21:28.239Z,25.67
2023-03-05T06:23:58.855Z,25.98
2023-03-05T06:26:27.010Z,25.92
2023-03-05T06:28:55.107Z,24.30
2023-03-05T06:31:28.130Z,25.83
2023-03-05T06:34:03.054Z,25.90
2023-03-05T06:36:31.643Z,25.25
2023-03-05T06:39:00.504Z,24.67
2023-03-05T06:41:31.000Z,23.80
2023-03-05T06:44:03.493Z,23.38
2023-03-05T06:46:40.635Z,22.67
2023-03-05T06:49:09.758Z,24.60
2023-03-05T06:51:40.393Z,22.17
2023-03-05T06:54:11.788Z,22.30
2023-03-05T06:56:42.050Z,20.83
2023-03-05T06:59:12.175Z,22.70
2023-03-05T07:01:40.332Z,20.88
2023-03-05T07:04:08.529Z,21.95
2023-03-05T07:06:38.735Z,21.50
2023-03-05T07:09:08.128Z,24.75
2023-03-05T07:11:36.413Z,24.80
2023-03-05T07:14:04.669Z,22.20
2023-03-05T07:16:34.946Z,20.90
2023-03-05T07:19:05.694Z,19.60
2023-03-05T07:21:36.903Z,21.38
2023-03-05T07:24:06.758Z,20.77
2023-03-05T07:26:35.088Z,18.33
2023-03-05T07:29:03.655Z,18.27
2023-03-05T07:31:32.350Z,17.75
2023-03-05T07:34:02.654Z,18.67
2023-03-05T07:36:31.249Z,18.77
2023-03-05T07:38:59.107Z,16.80
2023-03-05T07:41:27.080Z,18.10
2023-03-05T07:43:55.440Z,15.65
2023-03-05T07:46:29.533Z,17.27
2023-03-05T07:51:26.805Z,16.95
2023-03-05T07:53:57.605Z,18.15
2023-03-05T07:56:31.928Z,18.55
2023-03-05T07:59:00.368Z,19.52
2023-03-05T08:01:29.974Z,18.95
2023-03-05T08:03:57.986Z,20.08
2023-03-05T08:06:25.980Z,19.45
2023-03-05T08:08:53.813Z,18.80
2023-03-05T08:11:21.796Z,20.17
2023-03-05T08:13:51.322Z,18.75
2023-03-05T08:16:21.580Z,19.60
2023-03-05T08:18:49.508Z,19.02
2023-03-05T08:21:23.405Z,19.10
2023-03-05T08:23:51.321Z,18.42
2023-03-05T08:26:22.115Z,20.90
2023-03-05T08:28:50.936Z,19.45
2023-03-05T08:31:21.833Z,19.08
2023-03-05T08:33:52.156Z,19.20
2023-03-05T08:36:20.559Z,19.85
2023-03-05T08:38:48.819Z,19.15
2023-03-05T08:41:18.818Z,20.35
2023-03-05T08:43:47.069Z,19.60
2023-03-05T08:46:16.222Z,19.52
2023-03-05T08:48:44.763Z,19.60
2023-03-05T08:51:19.007Z,21.13
2023-03-05T08:53:48.222Z,19.85
2023-03-05T08:56:16.134Z,20.40
2023-03-05T08:58:44.869Z,21.35
2023-03-05T09:01:13.695Z,21.20
2023-03-05T09:03:42.180Z,19.00
2023-03-05T09:06:12.640Z,19.92
2023-03-05T09:08:40.717Z,21.90
2023-03-05T09:11:11.820Z,21.70
2023-03-05T09:13:39.965Z,19.67
2023-03-05T09:16:11.241Z,20.20
2023-03-05T09:18:40.758Z,21.15
2023-03-05T09:21:14.093Z,20.25
2023-03-05T09:23:42.732Z,21.17
2023-03-05T09:26:12.550Z,21.27
2023-03-05T09:28:41.020Z,21.85
2023-03-05T09:31:10.531Z,21.08
2023-03-05T09:33:39.360Z,21.58
2023-03-05T09:36:27.519Z,21.90
2023-03-05T09:38:55.892Z,21.35
2023-03-05T09:42:04.184Z,21.17
2023-03-05T09:44:59.325Z,21.40
2023-03-05T09:47:32.865Z,20.77
2023-03-05T09:50:18.969Z,21.52
2023-03-05T09:52:59.767Z,19.33
2023-03-05T09:55:44.831Z,20.65
2023-03-05T09:58:30.550Z,19.17
2023-03-05T10:01:02.770Z,20.40
2023-03-05T10:03:42.609Z,20.65
2023-03-05T10:06:23.752Z,19.23
2023-03-05T10:09:09.945Z,19.30
2023-03-05T10:11:59.262Z,21.48
2023-03-05T10:14:31.160Z,21.33
2023-03-05T10:17:20.897Z,21.48
2023-03-05T10:20:13.203Z,20.98
2023-03-05T10:23:39.453Z,19.00
2023-03-05T10:26:36.756Z,24.60
2023-03-05T10:29:13.543Z,19.33
2023-03-05T10:32:04.588Z,20.88
2023-03-05T10:35:01.838Z,22.60
2023-03-05T10:37:48.892Z,22.20
2023-03-05T10:40:30.014Z,20.27
2023-03-05T10:43:15.683Z,23.10
2023-03-05T10:45:46.700Z,23.42
2023-03-05T10:48:43.506Z,21.80
2023-03-05T10:51:23.325Z,24.13
2023-03-05T10:53:56.599Z,23.58
2023-03-05T10:56:27.768Z,20.00
2023-03-05T10:58:55.854Z,21.40
2023-03-05T11:01:28.272Z,21.55
2023-03-05T11:04:01.616Z,21.50
2023-03-05T11:06:46.537Z,22.27
2023-03-05T11:09:29.456Z,19.95
2023-03-05T11:12:19.600Z,20.30
2023-03-05T11:15:05.121Z,20.85
2023-03-05T11:17:38.326Z,21.13
2023-03-05T11:20:27.765Z,20.10
2023-03-05T11:23:05.882Z,21.25
2023-03-05T11:25:35.441Z,19.92
2023-03-05T11:28:04.290Z,19.90
2023-03-05T11:30:35.222Z,19.00
2023-03-05T11:33:22.689Z,18.75
2023-03-05T11:35:52.680Z,19.00
2023-03-05T11:38:24.678Z,17.67
2023-03-05T11:40:55.671Z,18.83
2023-03-05T11:43:25.886Z,18.60
2023-03-05T11:46:01.713Z,18.40
2023-03-05T11:48:36.147Z,19.10
2023-03-05T11:51:13.899Z,18.08
2023-03-05T11:53:44.755Z,16.88
2023-03-05T11:56:21.079Z,18.08
2023-03-05T11:59:03.108Z,19.63
2023-03-05T12:01:40.683Z,19.00
2023-03-05T12:04:08.923Z,17.88
2023-03-05T12:06:49.255Z,19.65
2023-03-05T12:09:23.178Z,18.20
2023-03-05T12:11:56.709Z,17.55
2023-03-05T12:14:28.112Z,19.30
2023-03-05T12:17:04.543Z,17.95
2023-03-05T12:19:41.424Z,17.58
2023-03-05T12:22:27.423Z,17.33
2023-03-05T12:25:34.884Z,18.65
2023-03-05T12:28:03.326Z,17.65
2023-03-05T12:30:37.189Z,19.20
2023-03-05T12:33:26.765Z,18.70
2023-03-05T12:35:55.037Z,17.58
2023-03-05T12:38:31.885Z,19.77
2023-03-05T12:41:25.861Z,18.80
2023-03-05T12:44:07.056Z,18.52
2023-03-05T12:46:54.822Z,17.25
2023-03-05T12:49:27.196Z,19.92
2023-03-05T12:52:01.351Z,18.80
2023-03-05T12:54:31.959Z,19.48
2023-03-05T12:57:06.845Z,19.90
2023-03-05T12:59:45.790Z,19.85
2023-03-05T13:02:32.542Z,18.80
2023-03-05T13:05:14.860Z,19.65
2023-03-05T13:07:42.884Z,18.55
2023-03-05T13:10:29.297Z,20.98
2023-03-05T13:12:58.757Z,20.55
2023-03-05T13:15:27.258Z,19.67
2023-03-05T13:17:58.144Z,19.92
2023-03-05T13:20:28.894Z,19.35
2023-03-05T13:23:20.799Z,19.67
2023-03-05T13:26:01.440Z,20.48
2023-03-05T13:28:32.553Z,19.65
2023-03-05T13:31:05.114Z,19.80
2023-03-05T13:33:37.846Z,19.88
2023-03-05T13:36:06.851Z,19.67
2023-03-05T13:38:39.255Z,19.92
2023-03-05T13:41:16.227Z,20.08
2023-03-05T13:43:49.635Z,18.48
2023-03-05T13:46:47.889Z,19.92
2023-03-05T13:49:23.156Z,18.50
2023-03-05T13:51:56.645Z,18.38
2023-03-05T13:54:27.198Z,18.55
2023-03-05T13:57:00.777Z,19.33
2023-03-05T13:59:31.415Z,18.25
2023-03-05T14:02:01.632Z,18.88
2023-03-05T14:04:42.837Z,20.23
2023-03-05T14:07:39.971Z,19.65
2023-03-05T14:10:40.470Z,19.55
2023-03-05T14:13:19.362Z,17.88
2023-03-05T14:16:07.053Z,18.55
2023-03-05T14:18:36.129Z,17.88
2023-03-05T14:21:10.158Z,19.88
2023-03-05T14:23:39.741Z,18.40
2023-03-05T14:26:39.758Z,19.00
2023-03-05T14:29:07.634Z,19.77
2023-03-05T14:31:56.296Z,20.88
2023-03-05T14:34:35.366Z,19.75
2023-03-05T14:37:07.333Z,19.48
2023-03-05T14:39:53.221Z,19.60
2023-03-05T14:42:38.434Z,20.50
2023-03-05T14:45:24.637Z,18.17
2023-03-05T14:47:54.512Z,19.75
2023-03-05T14:50:32.764Z,20.48
2023-03-05T14:53:17.515Z,20.70
2023-03-05T14:55:49.446Z,21.27
2023-03-05T14:58:22.008Z,19.35
2023-03-05T15:00:51.343Z,19.35
2023-03-05T15:03:22.049Z,18.73
2023-03-05T15:05:56.505Z,20.55
2023-03-05T15:08:27.747Z,20.70
2023-03-05T15:10:56.063Z,20.20
2023-03-05T15:13:24.546Z,19.73
2023-03-05T15:15:53.765Z,20.73
2023-03-05T15:18:23.930Z,21.58
2023-03-05T15:20:57.128Z,21.08
2023-03-05T15:23:25.284Z,20.23
2023-03-05T15:25:53.111Z,21.42
2023-03-05T15:28:21.171Z,20.85
2023-03-05T15:30:49.082Z,20.85
2023-03-05T15:33:18.296Z,21.80
2023-03-05T15:35:46.552Z,20.40
2023-03-05T15:38:16.374Z,20.88
2023-03-05T15:40:45.102Z,21.23
2023-03-05T15:43:13.528Z,21.52
2023-03-05T15:45:41.557Z,22.65
2023-03-05T15:48:09.688Z,21.60
2023-03-05T15:50:42.210Z,21.90
2023-03-05T15:53:13.612Z,21.63
2023-03-05T15:55:45.125Z,20.80
2023-03-05T15:58:17.529Z,21.20
2023-03-05T16:00:47.696Z,22.67
2023-03-05T16:03:16.348Z,21.13
2023-03-05T16:05:44.435Z,22.40
2023-03-05T16:08:12.718Z,21.38
2023-03-05T16:10:41.186Z,24.20
2023-03-05T16:13:13.647Z,21.65
2023-03-05T16:15:43.140Z,22.73
2023-03-05T16:18:15.541Z,22.15
2023-03-05T16:20:43.757Z,22.38
2023-03-05T16:23:11.730Z,21.80
2023-03-05T16:25:39.799Z,20.83
2023-03-05T16:28:07.874Z,22.98
2023-03-05T16:30:35.829Z,22.55
2023-03-05T16:33:03.942Z,22.08
2023-03-05T16:35:31.941Z,21.90
2023-03-05T16:37:59.863Z,21.83
2023-03-05T16:40:44.137Z,21.50
2023-03-05T16:43:15.573Z,22.85
2023-03-05T16:45:43.404Z,24.15
2023-03-05T16:48:11.181Z,23.05
2023-03-05T16:50:39.077Z,21.02
2023-03-05T16:53:07.685Z,21.65
2023-03-05T16:55:37.020Z,22.08
2023-03-05T16:58:05.354Z,23.05
2023-03-05T17:00:33.382Z,23.30
2023-03-05T17:03:01.453Z,22.17
2023-03-05T17:05:30.017Z,22.75
2023-03-05T17:07:57.983Z,22.55
2023-03-05T17:10:26.013Z,23.80
2023-03-05T17:12:54.676Z,24.45
2023-03-05T17:15:23.659Z,25.60
2023-03-05T17:17:51.822Z,24.63
2023-03-05T17:20:20.304Z,25.60
2023-03-05T17:22:48.204Z,25.25
2023-03-05T17:25:16.162Z,25.85
2023-03-05T17:27:44.091Z,25.23
2023-03-05T17:30:13.134Z,23.65
2023-03-05T17:32:44.139Z,23.83
2023-03-05T17:35:19.390Z,24.55
2023-03-05T17:37:47.434Z,26.13
2023-03-05T17:40:16.434Z,24.50
2023-03-05T17:42:44.349Z,24.15
2023-03-05T17:45:12.696Z,25.60
2023-03-05T17:47:40.836Z,24.77
2023-03-05T17:50:10.806Z,24.75
2023-03-05T17:52:40.634Z,24.25
2023-03-05T17:55:11.100Z,25.23
2023-03-05T17:57:44.178Z,25.27
2023-03-05T18:00:24.783Z,25.33
2023-03-05T18:02:53.920Z,25.88
2023-03-05T18:05:23.684Z,25.80
2023-03-05T18:07:52.309Z,24.65
2023-03-05T18:10:21.185Z,26.20
2023-03-05T18:12:49.648Z,25.85
2023-03-05T18:15:20.105Z,25.05
2023-03-05T18:17:48.097Z,25.55
2023-03-05T18:20:32.812Z,25.75
2023-03-05T18:23:02.095Z,23.75
2023-03-05T18:25:33.759Z,27.20
2023-03-05T18:28:04.251Z,27.60
2023-03-05T18:30:32.788Z,24.75
2023-03-05T18:33:01.109Z,26.27
2023-03-05T18:35:29.791Z,26.25
2023-03-05T18:37:57.881Z,25.88
2023-03-05T18:40:29.286Z,25.98
2023-03-05T18:43:00.207Z,26.63
2023-03-05T18:45:29.869Z,30.70
2023-03-05T18:47:57.985Z,36.97
2023-03-05T18:50:28.482Z,35.72
2023-03-05T18:52:56.765Z,26.92
2023-03-05T18:55:27.600Z,28.00
2023-03-05T18:57:56.361Z,29.80
2023-03-05T19:00:27.738Z,27.98
2023-03-05T19:02:57.133Z,30.45
2023-03-05T19:05:26.830Z,27.60
2023-03-05T19:07:55.627Z,27.58
2023-03-05T19:10:27.264Z,29.33
2023-03-05T19:13:39.877Z,28.65
2023-03-05T19:16:08.938Z,34.45
2023-03-05T19:19:26.065Z,33.35
2023-03-05T19:21:59.721Z,29.98
2023-03-05T19:24:30.183Z,30.30
2023-03-05T19:27:01.247Z,28.23
2023-03-05T19:29:33.135Z,28.00
2023-03-05T19:32:01.292Z,28.98
2023-03-05T19:34:29.156Z,28.20
2023-03-05T19:36:57.357Z,32.08
2023-03-05T19:39:25.316Z,29.27
2023-03-05T19:41:53.785Z,29.80
2023-03-05T19:44:23.543Z,28.42
2023-03-05T19:46:52.276Z,27.95
2023-03-05T19:49:20.526Z,29.90
2023-03-05T19:51:49.719Z,27.67
2023-03-05T19:54:19.858Z,28.40
2023-03-05T19:56:49.161Z,28.08
2023-03-05T19:59:21.283Z,26.42
2023-03-05T20:01:50.167Z,27.85
2023-03-05T20:04:24.452Z,23.33
2023-03-05T20:06:52.768Z,24.98
2023-03-05T20:09:20.737Z,23.27
2023-03-05T20:11:50.074Z,21.27
2023-03-05T20:14:18.546Z,21.58
2023-03-05T20:16:46.494Z,21.25
2023-03-05T20:19:17.781Z,21.17
2023-03-05T20:21:45.738Z,22.20
2023-03-05T20:24:20.110Z,21.23
2023-03-05T20:26:48.337Z,21.08
2023-03-05T20:29:18.169Z,22.23
2023-03-05T20:31:47.786Z,20.23
2023-03-05T20:34:21.133Z,19.60
2023-03-05T20:36:52.261Z,18.85
2023-03-05T20:39:20.190Z,20.08
2023-03-05T20:41:48.685Z,19.00
2023-03-05T20:44:17.480Z,18.55
2023-03-05T20:47:39.673Z,19.05
2023-03-05T20:50:11.129Z,18.83
2023-03-05T20:52:39.513Z,18.67
2023-03-05T20:55:08.956Z,19.58
2023-03-05T20:57:36.904Z,19.63
2023-03-05T21:00:05.915Z,21.20
2023-03-05T21:02:33.842Z,19.23
2023-03-05T21:05:01.643Z,18.38
2023-03-05T21:07:29.830Z,18.63
2023-03-05T21:09:57.589Z,17.45
2023-03-05T21:12:25.435Z,18.98
2023-03-05T21:14:53.363Z,18.63
2023-03-05T21:17:21.370Z,19.27
2023-03-05T21:19:49.444Z,19.85
2023-03-05T21:22:17.333Z,19.40
2023-03-05T21:25:24.936Z,18.65
2023-03-05T21:28:16.639Z,17.42
2023-03-05T21:30:51.913Z,17.92
2023-03-05T21:33:23.545Z,18.10
2023-03-05T21:35:52.902Z,17.65
2023-03-05T21:38:27.062Z,18.23
2023-03-05T21:43:24.248Z,17.73
2023-03-05T21:45:54.349Z,17.60
2023-03-05T21:48:23.480Z,19.20
2023-03-05T21:50:52.557Z,18.35
2023-03-05T21:53:21.069Z,18.98
2023-03-05T21:56:25.469Z,19.88
2023-03-05T21:58:54.205Z,19.25
2023-03-05T22:01:22.408Z,18.88
2023-03-05T22:03:50.809Z,17.85
2023-03-05T22:06:19.862Z,18.20
2023-03-05T22:08:48.600Z,19.75
2023-03-05T22:11:18.058Z,17.27
2023-03-05T22:13:45.912Z,18.67
2023-03-05T22:16:24.526Z,19.75
2023-03-05T22:18:52.957Z,18.92
2023-03-05T22:21:23.481Z,18.88
2023-03-05T22:23:51.367Z,19.38
2023-03-05T22:26:19.235Z,19.10
2023-03-05T22:28:47.110Z,20.38
2023-03-05T22:31:27.525Z,18.95
2023-03-05T22:33:55.364Z,19.05
2023-03-05T22:36:24.550Z,18.65
2023-03-05T22:38:52.813Z,19.85
2023-03-05T22:41:21.847Z,19.40
2023-03-05T22:43:50.653Z,20.45
2023-03-05T22:46:24.524Z,19.85
2023-03-05T22:48:52.709Z,18.70
2023-03-05T22:51:20.801Z,19.17
2023-03-05T22:53:48.794Z,18.80
2023-03-05T22:56:19.039Z,20.60
2023-03-05T22:58:47.260Z,20.08
2023-03-05T23:01:18.692Z,20.25
2023-03-05T23:04:44.801Z,18.67
2023-03-05T23:07:34.784Z,20.00
2023-03-05T23:10:07.265Z,20.50
2023-03-05T23:12:37.801Z,20.25
2023-03-05T23:15:09.036Z,22.60
2023-03-05T23:17:36.995Z,20.83
2023-03-05T23:20:08.020Z,21.90
2023-03-05T23:22:40.388Z,22.90
2023-03-05T23:25:08.687Z,20.27
2023-03-05T23:27:36.678Z,19.65
2023-03-05T23:30:24.461Z,20.35
2023-03-05T23:32:58.832Z,19.58
2023-03-05T23:35:51.412Z,20.83
2023-03-05T23:38:19.352Z,24.05
2023-03-05T23:40:50.026Z,21.70
2023-03-05T23:43:18.953Z,23.92
2023-03-05T23:45:49.447Z,21.27
2023-03-05T23:48:18.109Z,20.55
2023-03-05T23:50:48.680Z,20.90
2023-03-05T23:53:22.269Z,23.25
2023-03-05T23:55:50.580Z,22.67
2023-03-05T23:58:20.726Z,21.73
